Time;durP1;ratioP1;P1;durP2;ratioP2;P2;SDS_P1;SDS_P2;PMS_P1;PMS_P2;Temp;Humidity;BMP_temperature;BMP_pressure;BME280_temperature;BME280_humidity;BME280_pressure;Samples;Min_cycle;Max_cycle;Signal;HPM_P1;HPM_P2
2022/05/01 00:00:47;;;;;;;19.55;11.52;;;;;;;9.29;100.00;102116.91;4991197;28;20046;-81
2022/05/01 00:03:31;;;;;;;18.88;11.13;;;;;;;9.26;100.00;102125.28;4991239;28;20445;-81
2022/05/01 00:06:01;;;;;;;18.05;10.70;;;;;;;9.27;100.00;102119.72;4968439;28;20476;-80
2022/05/01 00:08:27;;;;;;;20.70;10.77;;;;;;;9.22;100.00;102124.56;4997949;28;20046;-82
2022/05/01 00:10:54;;;;;;;18.67;10.55;;;;;;;9.26;100.00;102122.56;4976595;28;20030;-82
2022/05/01 00:13:21;;;;;;;18.25;10.95;;;;;;;9.34;100.00;102129.38;4999295;28;20532;-83
2022/05/01 00:15:47;;;;;;;18.98;10.77;;;;;;;9.17;100.00;102126.66;5001239;28;20160;-82
2022/05/01 00:18:12;;;;;;;15.80;9.98;;;;;;;9.17;100.00;102115.72;4983180;28;20080;-82
2022/05/01 00:20:38;;;;;;;22.73;10.82;;;;;;;9.14;100.00;102116.75;4994356;28;20042;-82
2022/05/01 00:23:03;;;;;;;14.73;10.07;;;;;;;9.16;100.00;102113.94;4966129;28;20035;-82
2022/05/01 00:25:29;;;;;;;21.92;10.05;;;;;;;9.28;100.00;102123.34;4965865;28;20081;-83
2022/05/01 00:27:55;;;;;;;25.45;10.25;;;;;;;9.21;100.00;102120.06;4963299;28;20521;-81
2022/05/01 00:30:21;;;;;;;15.63;9.95;;;;;;;9.22;100.00;102110.03;4950158;28;20049;-82
2022/05/01 00:38:14;;;;;;;20.10;10.20;;;;;;;9.16;100.00;102113.94;4994470;28;20046;-82
2022/05/01 00:40:39;;;;;;;15.40;8.85;;;;;;;9.21;100.00;102117.31;4976124;28;20034;-82
2022/05/01 00:43:05;;;;;;;19.63;10.25;;;;;;;9.18;100.00;102123.84;4978047;28;20088;-81
2022/05/01 00:45:32;;;;;;;24.50;10.82;;;;;;;9.21;100.00;102122.78;4956247;28;20043;-81
2022/05/01 00:47:57;;;;;;;20.25;10.50;;;;;;;9.11;100.00;102127.84;4984760;28;20049;-82
2022/05/01 00:50:24;;;;;;;17.52;10.05;;;;;;;9.09;100.00;102118.84;4999857;28;20129;-82
2022/05/01 00:52:51;;;;;;;15.60;9.77;;;;;;;9.00;100.00;102114.78;4975975;28;20424;-82
2022/05/01 00:55:16;;;;;;;12.88;9.43;;;;;;;9.02;100.00;102129.22;4999306;28;20045;-81
2022/05/01 00:57:45;;;;;;;19.67;10.93;;;;;;;9.04;100.00;102114.63;4998944;28;20034;-82
2022/05/01 01:00:11;;;;;;;15.88;9.48;;;;;;;9.01;100.00;102119.25;4998817;28;20034;-81
2022/05/01 01:02:37;;;;;;;20.85;9.70;;;;;;;8.99;100.00;102115.72;4997435;28;20030;-81
2022/05/01 01:05:05;;;;;;;16.70;10.00;;;;;;;8.98;100.00;102115.81;4993516;28;20044;-81
2022/05/01 01:07:31;;;;;;;19.80;10.10;;;;;;;8.96;100.00;102104.97;4998320;28;20053;-81
2022/05/01 01:09:56;;;;;;;16.90;9.30;;;;;;;8.97;100.00;102114.94;4997667;28;20394;-82
2022/05/01 01:15:09;;;;;;;16.23;9.98;;;;;;;9.09;100.00;102112.53;4993971;28;20053;-81
2022/05/01 01:17:43;;;;;;;14.55;9.90;;;;;;;9.00;100.00;102119.34;4996395;28;20502;-81
2022/05/01 01:20:12;;;;;;;17.98;9.77;;;;;;;9.05;100.00;102113.63;4992059;28;20026;-81
2022/05/01 01:22:39;;;;;;;17.55;10.35;;;;;;;9.05;100.00;102106.34;4990907;28;20037;-81
2022/05/01 01:25:09;;;;;;;15.38;10.32;;;;;;;9.08;100.00;102099.81;4979068;28;20038;-81
2022/05/01 01:27:35;;;;;;;18.08;10.77;;;;;;;9.05;100.00;102106.34;4997734;28;20088;-82
2022/05/01 01:32:47;;;;;;;20.08;10.40;;;;;;;8.93;100.00;102107.84;5009358;28;20077;-82
2022/05/01 01:35:15;;;;;;;14.25;10.25;;;;;;;8.87;100.00;102097.25;4996108;28;20505;-81
2022/05/01 01:37:46;;;;;;;23.35;10.07;;;;;;;8.94;100.00;102101.44;4976900;28;20102;-81
2022/05/01 01:40:14;;;;;;;16.98;11.10;;;;;;;8.90;100.00;102091.63;4993946;28;20116;-80
2022/05/01 01:42:41;;;;;;;16.42;10.85;;;;;;;8.80;100.00;102088.47;4992062;28;20027;-81
2022/05/01 01:45:07;;;;;;;17.58;10.63;;;;;;;8.97;100.00;102098.53;4992865;28;20046;-81
2022/05/01 01:47:33;;;;;;;17.23;10.88;;;;;;;9.04;100.00;102106.41;4987059;28;20436;-82
2022/05/01 01:49:58;;;;;;;19.40;9.98;;;;;;;9.10;100.00;102100.59;4966296;28;20042;-80
2022/05/01 01:52:24;;;;;;;14.35;10.77;;;;;;;9.04;100.00;102099.09;4957162;28;20090;-81
2022/05/01 01:54:50;;;;;;;17.02;11.15;;;;;;;9.05;100.00;102105.44;4962965;28;20034;-81
2022/05/01 01:57:16;;;;;;;22.25;10.77;;;;;;;9.02;100.00;102101.91;4980703;28;20069;-81
2022/05/01 01:59:41;;;;;;;17.17;10.63;;;;;;;8.93;100.00;102105.09;4945953;28;20059;-80
2022/05/01 02:02:08;;;;;;;19.67;10.48;;;;;;;8.95;100.00;102092.28;4957741;28;20066;-80
2022/05/01 02:04:34;;;;;;;21.20;10.68;;;;;;;8.85;100.00;102070.97;4980250;28;20050;-82
2022/05/01 02:07:00;;;;;;;20.80;11.32;;;;;;;8.97;100.00;102087.63;4996710;28;20055;-82
2022/05/01 02:09:25;;;;;;;17.13;10.32;;;;;;;8.93;100.00;102093.31;4971126;28;20046;-82
2022/05/01 02:11:52;;;;;;;18.80;11.35;;;;;;;8.85;100.00;102087.38;4959453;28;20027;-81
2022/05/01 02:14:19;;;;;;;15.48;10.98;;;;;;;8.82;100.00;102093.84;4976268;28;20042;-82
2022/05/01 02:16:44;;;;;;;20.33;11.30;;;;;;;8.71;100.00;102097.16;4949200;28;20081;-81
2022/05/01 02:19:10;;;;;;;18.13;11.82;;;;;;;8.73;100.00;102087.03;4967882;28;20038;-81
2022/05/01 02:21:36;;;;;;;20.08;11.68;;;;;;;8.83;100.00;102091.03;4977642;28;20754;-83
2022/05/01 02:24:12;;;;;;;16.52;10.80;;;;;;;8.81;100.00;102083.91;4995237;28;20045;-82
2022/05/01 02:26:38;;;;;;;17.65;11.45;;;;;;;8.86;100.00;102083.69;4978809;28;20782;-82
2022/05/01 02:29:10;;;;;;;21.25;11.88;;;;;;;8.71;100.00;102068.97;5007479;28;20042;-83
2022/05/01 02:31:40;;;;;;;20.35;12.10;;;;;;;8.86;100.00;102086.41;5008935;28;20062;-83
2022/05/01 02:34:06;;;;;;;20.58;11.23;;;;;;;8.81;100.00;102089.38;4976525;28;20059;-81
2022/05/01 02:36:32;;;;;;;19.08;12.13;;;;;;;8.81;100.00;102075.72;4977833;28;20064;-81
2022/05/01 02:38:57;;;;;;;22.40;11.48;;;;;;;8.78;100.00;102074.03;4996513;28;20098;-81
2022/05/01 02:41:23;;;;;;;26.42;11.90;;;;;;;8.78;100.00;102076.75;4995328;28;20042;-80
2022/05/01 02:43:48;;;;;;;19.65;12.23;;;;;;;8.76;100.00;102077.81;4955447;28;20122;-80
2022/05/01 02:46:15;;;;;;;20.42;11.93;;;;;;;8.79;100.00;102072.19;4995189;28;20063;-80
2022/05/01 02:48:41;;;;;;;19.15;12.40;;;;;;;8.75;100.00;102074.19;4998452;28;20109;-82
2022/05/01 02:51:07;;;;;;;19.00;11.57;;;;;;;8.70;100.00;102075.41;4995284;28;20470;-82
2022/05/01 02:53:33;;;;;;;17.92;12.20;;;;;;;8.65;100.00;102071.03;5002449;28;20061;-81
2022/05/01 02:56:00;;;;;;;21.63;12.40;;;;;;;8.59;100.00;102070.47;5001645;28;20063;-81
2022/05/01 02:58:30;;;;;;;26.73;13.23;;;;;;;8.62;100.00;102076.69;4969301;28;20030;-80
2022/05/01 03:00:57;;;;;;;22.70;12.55;;;;;;;8.52;100.00;102061.72;5009577;28;20034;-82
2022/05/01 03:03:23;;;;;;;22.50;12.63;;;;;;;8.59;100.00;102082.31;4985751;28;20030;-82
2022/05/01 03:05:53;;;;;;;23.15;12.60;;;;;;;8.71;100.00;102068.97;5001632;28;20046;-82
2022/05/01 03:08:18;;;;;;;17.77;11.73;;;;;;;8.75;100.00;102065.13;4979227;28;20061;-82
2022/05/01 03:10:44;;;;;;;22.08;12.30;;;;;;;8.74;100.00;102066.97;5002990;28;20034;-82
2022/05/01 03:13:10;;;;;;;22.00;13.27;;;;;;;8.63;100.00;102066.63;4999916;28;20034;-81
2022/05/01 03:15:36;;;;;;;32.17;13.15;;;;;;;8.61;100.00;102065.84;4987732;28;20042;-83
2022/05/01 03:23:30;;;;;;;21.48;12.88;;;;;;;8.44;100.00;102055.75;4999943;28;20045;-81
2022/05/01 03:25:57;;;;;;;25.50;13.43;;;;;;;8.49;100.00;102058.25;4983365;28;20026;-83
2022/05/01 03:28:23;;;;;;;26.63;14.15;;;;;;;8.50;100.00;102057.31;4986693;28;20058;-82
2022/05/01 03:30:49;;;;;;;24.20;13.30;;;;;;;8.51;100.00;102067.25;4982733;28;20405;-79
2022/05/01 03:33:16;;;;;;;24.83;13.60;;;;;;;8.33;100.00;102031.72;4970201;28;20388;-81
2022/05/01 03:35:42;;;;;;;21.17;13.05;;;;;;;8.45;100.00;102050.22;5005053;28;20058;-82
2022/05/01 03:38:07;;;;;;;21.90;13.45;;;;;;;8.46;100.00;102048.38;5003361;28;20034;-81
2022/05/01 03:40:35;;;;;;;24.48;12.77;;;;;;;8.51;100.00;102059.06;5002408;28;20429;-82
2022/05/01 03:43:04;;;;;;;26.15;13.70;;;;;;;8.53;100.00;102040.78;4975881;28;20034;-81
2022/05/01 03:45:31;;;;;;;22.85;13.40;;;;;;;8.60;100.00;102050.41;4984120;28;20049;-81
2022/05/01 03:47:56;;;;;;;23.42;13.93;;;;;;;8.49;100.00;102048.22;4996702;28;20101;-81
2022/05/01 03:50:22;;;;;;;24.88;13.95;;;;;;;8.42;100.00;102046.75;4997847;28;20047;-81
2022/05/01 03:52:48;;;;;;;20.17;13.43;;;;;;;8.50;100.00;102050.00;4994706;28;20041;-81
2022/05/01 03:55:13;;;;;;;23.65;13.30;;;;;;;8.49;100.00;102041.88;4996394;28;20041;-81
2022/05/01 03:57:39;;;;;;;22.30;13.63;;;;;;;8.51;100.00;102048.16;4992869;28;20026;-82
2022/05/01 04:00:18;;;;;;;22.85;13.13;;;;;;;8.52;100.00;102060.84;4999525;28;20046;-81
2022/05/01 04:02:45;;;;;;;26.20;13.57;;;;;;;8.46;100.00;102052.00;4979194;28;20031;-81
2022/05/01 04:05:12;;;;;;;25.13;13.98;;;;;;;8.43;100.00;102045.84;5000445;28;20061;-82
2022/05/01 04:07:39;;;;;;;23.70;14.35;;;;;;;8.36;100.00;102036.13;4983869;28;20422;-81
2022/05/01 04:10:05;;;;;;;24.58;14.07;;;;;;;8.46;100.00;102059.28;5000108;28;20037;-82
2022/05/01 04:12:40;;;;;;;26.60;13.85;;;;;;;8.51;100.00;102064.53;4982430;28;20057;-82
2022/05/01 04:15:09;;;;;;;27.55;13.73;;;;;;;8.44;100.00;102056.66;4983962;28;20039;-80
2022/05/01 04:17:41;;;;;;;26.63;13.73;;;;;;;8.41;100.00;102048.59;4979289;28;20034;-81
2022/05/01 04:20:13;;;;;;;22.73;13.52;;;;;;;8.34;100.00;102040.78;5007365;28;20061;-81
2022/05/01 04:22:47;;;;;;;22.30;13.55;;;;;;;8.37;100.00;102054.28;4996634;28;20549;-81
2022/05/01 04:25:24;;;;;;;24.08;13.43;;;;;;;8.43;100.00;102043.97;4999953;28;20096;-80
2022/05/01 04:27:52;;;;;;;22.98;13.40;;;;;;;8.44;100.00;102051.22;4972460;28;20042;-81
2022/05/01 04:30:19;;;;;;;20.42;13.35;;;;;;;8.41;100.00;102036.78;4998049;28;20193;-81
2022/05/01 04:32:50;;;;;;;26.48;13.98;;;;;;;8.40;100.00;102041.38;5015932;28;20034;-81
2022/05/01 04:35:31;;;;;;;23.15;14.52;;;;;;;8.33;100.00;102036.28;5000024;28;20041;-81
2022/05/01 04:38:18;;;;;;;24.63;14.70;;;;;;;8.39;100.00;102046.91;4979257;28;20030;-80
2022/05/01 04:40:49;;;;;;;25.55;14.05;;;;;;;8.40;100.00;102041.38;4982906;28;20058;-81
2022/05/01 04:43:17;;;;;;;28.42;15.07;;;;;;;8.42;100.00;102050.34;4975364;28;20084;-81
2022/05/01 04:45:43;;;;;;;22.65;13.60;;;;;;;8.46;100.00;102038.38;5014372;28;20045;-80
2022/05/01 04:48:11;;;;;;;28.10;14.63;;;;;;;8.50;100.00;102044.53;4998771;28;20023;-81
2022/05/01 04:50:37;;;;;;;23.10;14.02;;;;;;;8.54;100.00;102039.81;5000348;28;20038;-81
2022/05/01 04:53:09;;;;;;;25.80;14.43;;;;;;;8.47;100.00;102050.16;4977337;28;20046;-81
2022/05/01 04:55:36;;;;;;;27.48;13.27;;;;;;;8.44;100.00;102050.31;4964777;28;20031;-81
2022/05/01 04:58:03;;;;;;;28.73;15.00;;;;;;;8.34;100.00;102041.66;4995053;28;20134;-82
2022/05/01 05:00:29;;;;;;;27.45;15.07;;;;;;;8.42;100.00;102057.66;4998861;28;20041;-81
2022/05/01 05:02:56;;;;;;;24.95;14.50;;;;;;;8.42;100.00;102047.63;4982103;28;20033;-81
2022/05/01 05:05:23;;;;;;;34.47;16.13;;;;;;;8.50;100.00;102052.72;4967778;28;20030;-82
2022/05/01 05:07:49;;;;;;;22.80;14.77;;;;;;;8.48;100.00;102060.13;4987433;28;20516;-82
2022/05/01 05:10:16;;;;;;;26.40;14.30;;;;;;;8.59;100.00;102057.72;4998788;28;20116;-83
2022/05/01 05:12:47;;;;;;;25.17;14.40;;;;;;;8.63;100.00;102058.44;4991792;28;20069;-82
2022/05/01 05:15:20;;;;;;;28.98;15.68;;;;;;;8.51;100.00;102040.88;4972058;28;20031;-83
2022/05/01 05:17:46;;;;;;;21.27;14.27;;;;;;;8.73;100.00;102067.03;4968536;28;20053;-82
2022/05/01 05:20:13;;;;;;;24.83;14.93;;;;;;;8.68;100.00;102070.00;4984486;28;20049;-82
2022/05/01 05:22:42;;;;;;;29.13;14.63;;;;;;;8.72;100.00;102065.28;4984040;28;20189;-82
2022/05/01 05:25:12;;;;;;;35.95;16.58;;;;;;;8.67;100.00;102067.34;4991814;28;20039;-82
2022/05/01 05:27:38;;;;;;;34.03;15.10;;;;;;;8.78;100.00;102070.41;4996361;28;20034;-81
2022/05/01 05:30:05;;;;;;;26.58;15.10;;;;;;;8.82;100.00;102064.72;4992766;28;20034;-81
2022/05/01 05:32:30;;;;;;;28.05;15.73;;;;;;;8.88;100.00;102065.38;5000251;28;20037;-81
2022/05/01 05:34:56;;;;;;;26.25;16.05;;;;;;;8.81;100.00;102065.66;4982684;28;20449;-80
2022/05/01 05:37:21;;;;;;;29.17;16.52;;;;;;;8.78;100.00;102076.75;4976581;28;20030;-80
2022/05/01 05:39:47;;;;;;;35.85;17.25;;;;;;;8.89;100.00;102073.47;4966454;28;20040;-81
2022/05/01 05:42:13;;;;;;;28.75;16.67;;;;;;;9.05;100.00;102075.38;4982129;28;20042;-79
2022/05/01 05:44:39;;;;;;;34.15;17.02;;;;;;;9.05;100.00;102072.66;4985797;28;20034;-81
2022/05/01 05:47:05;;;;;;;23.58;14.45;;;;;;;9.31;100.00;102079.44;4990743;28;20034;-80
2022/05/01 05:49:33;;;;;;;28.05;16.20;;;;;;;9.02;100.00;102082.78;4995412;28;20030;-80
2022/05/01 05:51:59;;;;;;;27.90;15.90;;;;;;;9.16;100.00;102082.03;4995594;28;20501;-80
2022/05/01 05:54:24;;;;;;;22.67;15.63;;;;;;;9.14;100.00;102085.84;4997396;28;20042;-79
2022/05/01 05:56:50;;;;;;;28.13;15.50;;;;;;;9.11;100.00;102084.13;4980057;28;20093;-80
2022/05/01 05:59:16;;;;;;;29.33;17.33;;;;;;;9.04;100.00;102071.78;4996948;28;20045;-80
2022/05/01 06:01:41;;;;;;;28.75;16.70;;;;;;;9.04;100.00;102074.50;4963235;28;20053;-79
2022/05/01 06:04:07;;;;;;;33.60;17.08;;;;;;;9.14;100.00;102072.19;4998159;28;20041;-79
2022/05/01 06:06:34;;;;;;;30.90;15.60;;;;;;;9.38;100.00;102079.03;4995356;28;20045;-80
2022/05/01 06:09:01;;;;;;;24.83;16.17;;;;;;;9.40;100.00;102089.03;4976804;28;20286;-79
2022/05/01 06:11:27;;;;;;;28.25;16.55;;;;;;;9.50;100.00;102087.53;5003788;28;20034;-79
2022/05/01 06:13:53;;;;;;;29.42;17.17;;;;;;;9.36;100.00;102083.72;4956476;28;20121;-79
2022/05/01 06:16:19;;;;;;;27.52;16.20;;;;;;;9.47;100.00;102088.59;5005732;28;20042;-79
2022/05/01 06:18:45;;;;;;;28.15;16.25;;;;;;;9.47;100.00;102087.72;5009885;28;20034;-79
2022/05/01 06:21:11;;;;;;;25.52;15.80;;;;;;;9.52;100.00;102091.06;4989080;28;20081;-78
2022/05/01 06:23:37;;;;;;;28.73;16.90;;;;;;;9.58;100.00;102090.75;4973866;28;20046;-80
2022/05/01 06:26:05;;;;;;;28.67;16.58;;;;;;;9.60;100.00;102097.00;4947512;28;20045;-80
2022/05/01 06:28:31;;;;;;;28.20;16.98;;;;;;;9.69;100.00;102101.06;4988287;28;20034;-79
2022/05/01 06:30:58;;;;;;;27.25;17.05;;;;;;;9.67;100.00;102106.63;4991393;28;20559;-77
2022/05/01 06:33:25;;;;;;;26.45;17.52;;;;;;;9.71;100.00;102101.91;4992478;28;20037;-78
2022/05/01 06:35:54;;;;;;;29.02;16.80;;;;;;;9.74;100.00;102096.25;4967519;28;20045;-79
2022/05/01 06:38:20;;;;;;;26.45;17.25;;;;;;;9.83;100.00;102103.94;4984808;28;20501;-81
2022/05/01 06:40:47;;;;;;;32.88;17.50;;;;;;;9.85;100.00;102103.84;4993106;28;20042;-77
2022/05/01 06:43:13;;;;;;;29.08;17.63;;;;;;;10.00;100.00;102100.25;4995934;28;20045;-80
2022/05/01 06:45:41;;;;;;;25.55;16.23;;;;;;;10.07;100.00;102103.53;4961517;28;20045;-79
2022/05/01 06:48:11;;;;;;;34.20;16.23;;;;;;;10.29;100.00;102106.78;4996173;28;20113;-80
2022/05/01 06:50:37;;;;;;;28.83;15.60;;;;;;;10.18;100.00;102109.25;4979064;28;20034;-79
2022/05/01 06:53:04;;;;;;;31.45;16.48;;;;;;;10.24;100.00;102105.28;5011102;28;20125;-80
2022/05/01 06:55:30;;;;;;;27.45;16.50;;;;;;;10.24;100.00;102097.94;4963979;28;20466;-79
2022/05/01 06:57:56;;;;;;;27.40;16.00;;;;;;;10.24;100.00;102102.56;4975960;28;20033;-80
2022/05/01 07:00:22;;;;;;;27.45;16.30;;;;;;;10.37;100.00;102091.81;4995898;28;20112;-80
2022/05/01 07:02:49;;;;;;;27.92;16.27;;;;;;;10.54;100.00;102110.84;4960446;28;20062;-79
2022/05/01 07:05:15;;;;;;;33.60;16.08;;;;;;;10.64;100.00;102103.88;5014159;28;20050;-80
2022/05/01 07:07:41;;;;;;;24.08;16.10;;;;;;;10.61;100.00;102105.94;4931364;28;1219564;-80
2022/05/01 07:10:08;;;;;;;29.50;16.38;;;;;;;10.73;100.00;102110.66;4971348;28;20038;-80
2022/05/01 07:12:34;;;;;;;29.33;16.83;;;;;;;10.41;100.00;102110.72;4996274;28;20182;-79
2022/05/01 07:15:00;;;;;;;23.70;15.75;;;;;;;10.56;100.00;102105.28;4997084;28;20034;-79
2022/05/01 07:17:26;;;;;;;22.70;15.15;;;;;;;11.13;100.00;102110.09;4946396;28;20053;-79
2022/05/01 07:19:52;;;;;;;29.08;16.05;;;;;;;10.74;100.00;102117.00;4995915;28;20018;-78
2022/05/01 07:22:17;;;;;;;23.88;15.13;;;;;;;10.81;100.00;102111.09;5008917;28;20050;-80
2022/05/01 07:24:43;;;;;;;26.15;16.13;;;;;;;10.73;100.00;102102.44;4973879;28;20049;-79
2022/05/01 07:27:09;;;;;;;31.75;16.95;;;;;;;10.94;100.00;102107.63;4964734;28;20043;-81
2022/05/01 07:29:35;;;;;;;28.40;17.40;;;;;;;10.79;100.00;102104.81;5004447;28;21289;-81
2022/05/01 07:32:00;;;;;;;33.30;17.65;;;;;;;10.84;100.00;102113.63;4995491;28;20103;-81
2022/05/01 07:34:26;;;;;;;32.22;17.80;;;;;;;10.97;100.00;102107.41;4994794;28;20045;-80
2022/05/01 07:36:52;;;;;;;30.38;18.13;;;;;;;10.95;100.00;102112.09;4970877;28;20095;-80
2022/05/01 07:39:18;;;;;;;28.10;18.60;;;;;;;10.89;100.00;102110.63;4969555;28;20045;-80
2022/05/01 07:41:44;;;;;;;32.30;17.73;;;;;;;11.02;100.00;102108.91;4957540;28;20026;-79
2022/05/01 07:44:14;;;;;;;27.83;16.98;;;;;;;11.10;100.00;102119.41;4992636;28;20026;-79
2022/05/01 07:46:43;;;;;;;32.03;17.95;;;;;;;11.16;100.00;102119.00;4978867;28;20056;-80
2022/05/01 07:49:09;;;;;;;29.08;16.88;;;;;;;11.13;100.00;102115.59;4995223;28;20038;-81
2022/05/01 07:51:35;;;;;;;28.67;16.02;;;;;;;11.20;100.00;102115.13;4987181;28;20121;-81
2022/05/01 07:54:02;;;;;;;24.27;16.25;;;;;;;11.40;100.00;102119.34;4977037;28;20023;-80
2022/05/01 07:56:28;;;;;;;27.02;16.48;;;;;;;11.36;100.00;102115.06;5010362;28;20045;-81
2022/05/01 07:58:54;;;;;;;27.75;17.15;;;;;;;11.41;100.00;102120.22;4996838;28;20031;-81
2022/05/01 08:01:20;;;;;;;30.20;17.70;;;;;;;11.46;100.00;102120.84;4982554;28;20066;-81
2022/05/01 08:06:30;;;;;;;25.20;16.02;;;;;;;11.43;100.00;102115.56;4986597;28;20049;-80
2022/05/01 08:08:55;;;;;;;27.45;16.63;;;;;;;11.58;100.00;102111.84;4976710;28;20050;-79
2022/05/01 08:11:21;;;;;;;30.45;16.45;;;;;;;11.62;100.00;102114.38;4973758;28;20378;-79
2022/05/01 08:13:47;;;;;;;30.40;15.85;;;;;;;11.94;100.00;102115.13;4995496;28;20062;-80
2022/05/01 08:16:13;;;;;;;19.42;13.60;;;;;;;12.39;100.00;102117.69;4978225;28;20417;-78
2022/05/01 08:21:23;;;;;;;23.23;14.18;;;;;;;11.76;100.00;102111.66;4995440;28;20064;-78
2022/05/01 08:23:49;;;;;;;21.52;14.07;;;;;;;11.82;100.00;102115.84;5008267;28;20177;-78
2022/05/01 08:26:17;;;;;;;20.83;11.70;;;;;;;12.03;98.93;102117.25;4992964;28;20037;-78
2022/05/01 08:28:44;;;;;;;20.05;11.68;;;;;;;12.23;97.17;102107.72;4987318;28;20038;-78
2022/05/01 08:31:09;;;;;;;20.77;13.20;;;;;;;11.94;100.00;102107.75;5001629;28;20061;-78
2022/05/01 08:33:36;;;;;;;21.98;13.82;;;;;;;12.12;100.00;102118.53;4993504;28;20022;-78
2022/05/01 08:36:04;;;;;;;25.40;13.52;;;;;;;12.39;97.66;102112.19;4990321;28;20037;-78
2022/05/01 08:38:30;;;;;;;21.48;13.55;;;;;;;12.57;96.59;102107.31;4993066;28;20131;-79
2022/05/01 08:40:56;;;;;;;21.52;13.32;;;;;;;12.64;96.17;102106.81;4992530;28;20038;-79
2022/05/01 08:43:23;;;;;;;24.90;13.07;;;;;;;12.61;96.12;102104.28;4990388;28;20104;-79
2022/05/01 08:46:26;;;;;;;20.55;12.38;;;;;;;13.63;90.34;102108.22;4996132;28;20034;-79
2022/05/01 08:49:06;;;;;;;18.92;12.23;;;;;;;13.39;90.45;102099.84;4978646;28;20505;-78
2022/05/01 08:51:37;;;;;;;22.35;12.52;;;;;;;14.01;85.90;102103.69;4994355;28;20042;-79
2022/05/01 08:54:05;;;;;;;20.67;12.70;;;;;;;13.87;86.35;102100.06;4993982;28;20049;-79
2022/05/01 08:56:36;;;;;;;22.10;13.52;;;;;;;13.91;89.90;102098.84;4989401;28;20030;-78
2022/05/01 08:59:04;;;;;;;19.08;12.63;;;;;;;13.46;90.00;102101.16;5008612;28;20045;-78
2022/05/01 09:01:33;;;;;;;15.95;11.18;;;;;;;13.65;89.61;102097.97;4987748;28;20042;-79
2022/05/01 09:04:06;;;;;;;17.90;10.60;;;;;;;13.78;83.60;102096.09;4993844;28;20034;-79
2022/05/01 09:06:35;;;;;;;;;;;;;;;13.94;80.83;102090.34;4987127;28;20030;-79
2022/05/01 09:09:08;;;;;;;16.10;9.25;;;;;;;13.63;83.05;102097.22;4970745;28;20288;-78
2022/05/01 09:14:24;;;;;;;12.50;9.45;;;;;;;13.24;84.15;102096.28;4987682;28;20124;-78
2022/05/01 09:17:09;;;;;;;19.65;9.70;;;;;;;13.14;81.63;102096.03;4991949;28;20040;-78
2022/05/01 09:19:35;;;;;;;16.13;10.85;;;;;;;13.60;80.91;102095.56;4995492;28;20035;-78
2022/05/01 09:22:00;;;;;;;20.20;11.00;;;;;;;13.57;80.95;102097.66;4995126;28;20030;-77
2022/05/01 09:24:28;;;;;;;17.35;10.95;;;;;;;13.14;82.52;102097.94;4963027;28;20045;-77
2022/05/01 09:26:54;;;;;;;11.75;8.65;;;;;;;12.91;80.73;102099.53;4986045;28;20093;-79
2022/05/01 09:29:24;;;;;;;17.83;9.88;;;;;;;13.25;78.02;102098.06;4991164;28;20065;-77
2022/05/01 09:31:50;;;;;;;15.43;9.70;;;;;;;12.85;81.07;102103.56;4989940;28;20034;-77
2022/05/01 09:34:24;;;;;;;18.98;10.02;;;;;;;12.81;79.98;102096.53;4959202;28;20045;-77
2022/05/01 09:36:51;;;;;;;18.70;10.60;;;;;;;13.19;80.84;102103.97;4981812;28;20046;-78
2022/05/01 09:39:28;;;;;;;16.27;10.20;;;;;;;12.79;83.16;102096.63;4972365;28;20039;-78
2022/05/01 09:41:54;;;;;;;18.38;11.20;;;;;;;12.69;87.12;102101.88;4992387;28;20529;-78
2022/05/01 09:44:22;;;;;;;16.10;11.23;;;;;;;13.10;83.59;102097.28;4987661;28;20145;-77
2022/05/01 09:46:49;;;;;;;15.30;10.27;;;;;;;13.10;84.09;102099.13;4991829;28;20042;-77
2022/05/01 09:49:17;;;;;;;15.20;9.88;;;;;;;12.60;83.36;102098.88;4988294;28;20126;-78
2022/05/01 09:51:53;;;;;;;17.05;10.73;;;;;;;12.69;81.68;102093.63;4991632;28;20038;-78
2022/05/01 09:54:21;;;;;;;19.05;9.93;;;;;;;12.80;80.73;102103.00;4993690;28;20104;-77
2022/05/01 09:57:00;;;;;;;16.42;10.73;;;;;;;12.62;81.14;102105.13;4991382;28;20042;-78
2022/05/01 09:59:28;;;;;;;17.50;10.52;;;;;;;12.83;77.23;102103.66;4992367;28;20085;-78
2022/05/01 10:02:02;;;;;;;16.42;10.23;;;;;;;12.73;80.42;102096.19;4983833;28;20478;-77
2022/05/01 10:04:37;;;;;;;16.42;10.43;;;;;;;12.89;82.27;102096.88;4993545;28;20042;-77
2022/05/01 10:07:05;;;;;;;20.67;11.30;;;;;;;13.08;79.52;102093.72;4994033;28;20065;-77
2022/05/01 10:09:32;;;;;;;21.52;11.30;;;;;;;13.09;81.81;102090.00;4995171;28;20413;-77
2022/05/01 10:12:10;;;;;;;17.90;11.15;;;;;;;13.24;82.39;102091.66;4992605;28;20065;-78
2022/05/01 10:14:36;;;;;;;18.73;11.07;;;;;;;13.05;80.55;102086.59;4984906;28;20041;-78
2022/05/01 10:17:02;;;;;;;23.85;11.38;;;;;;;13.07;79.78;102086.47;4991039;28;20046;-77
2022/05/01 10:19:28;;;;;;;20.38;11.38;;;;;;;13.46;81.95;102089.28;4981758;28;20509;-77
2022/05/01 10:22:00;;;;;;;26.55;11.60;;;;;;;13.53;82.34;102080.47;4987021;28;20475;-78
2022/05/01 10:24:28;;;;;;;19.83;10.98;;;;;;;13.68;79.77;102084.00;4979134;28;20474;-77
2022/05/01 10:27:06;;;;;;;23.10;12.80;;;;;;;14.26;76.76;102081.56;4992397;28;20062;-77
2022/05/01 10:29:38;;;;;;;17.85;11.10;;;;;;;14.23;77.50;102078.16;4978497;28;20460;-77
2022/05/01 10:32:50;;;;;;;21.63;11.80;;;;;;;14.18;76.91;102077.63;4992220;28;20026;-78
2022/05/01 10:35:45;;;;;;;22.08;11.10;;;;;;;13.81;77.68;102077.56;4973091;28;20031;-78
2022/05/01 10:38:40;;;;;;;18.10;12.35;;;;;;;14.13;79.33;102077.97;4984680;28;20057;-78
2022/05/01 10:41:07;;;;;;;22.23;12.00;;;;;;;14.62;76.80;102074.28;4984135;28;20038;-77
2022/05/01 10:43:37;;;;;;;19.63;11.77;;;;;;;14.49;75.53;102079.84;4971184;28;20081;-76
2022/05/01 10:46:21;;;;;;;22.50;12.48;;;;;;;15.03;75.60;102078.44;4989053;28;20034;-77
2022/05/01 10:48:47;;;;;;;20.38;11.50;;;;;;;15.13;73.08;102078.59;4976756;28;20034;-78
2022/05/01 10:51:31;;;;;;;33.80;10.43;;;;;;;15.84;69.01;102072.06;4984121;28;20050;-77
2022/05/01 10:54:15;;;;;;;15.50;8.95;;;;;;;15.59;65.06;102071.28;5002609;28;20034;-77
2022/05/01 10:57:06;;;;;;;20.08;9.43;;;;;;;15.30;65.50;102066.25;4990697;28;20034;-80
2022/05/01 10:59:49;;;;;;;13.73;8.60;;;;;;;14.98;61.32;102066.91;4983079;28;20041;-78
2022/05/01 11:02:22;;;;;;;18.00;9.82;;;;;;;14.36;65.90;102054.19;4994872;28;20478;-78
2022/05/01 11:04:48;;;;;;;14.27;9.88;;;;;;;14.45;68.95;102063.66;5007193;28;20084;-77
2022/05/01 11:07:16;;;;;;;17.27;8.77;;;;;;;14.16;64.75;102055.69;4977785;28;20043;-78
2022/05/01 11:09:48;;;;;;;15.55;9.43;;;;;;;14.45;64.88;102052.63;5007170;28;20051;-77
2022/05/01 11:12:17;;;;;;;16.08;9.90;;;;;;;14.73;64.87;102053.28;4998920;28;20386;-78
2022/05/01 11:14:55;;;;;;;16.02;9.95;;;;;;;14.51;63.80;102047.53;4998502;28;20026;-78
2022/05/01 11:17:36;;;;;;;13.95;9.35;;;;;;;14.47;62.87;102048.72;5000283;28;20081;-79
2022/05/01 11:20:14;;;;;;;15.80;9.60;;;;;;;14.80;59.38;102043.53;4994493;28;20031;-78
2022/05/01 11:22:40;;;;;;;16.10;9.20;;;;;;;14.46;62.43;102044.25;4988222;28;20057;-78
2022/05/01 11:25:10;;;;;;;13.45;9.77;;;;;;;14.52;62.82;102037.38;4978637;28;20037;-78
2022/05/01 11:27:50;;;;;;;17.45;9.80;;;;;;;14.40;60.41;102036.44;4993017;28;20053;-77
2022/05/01 11:30:38;;;;;;;18.60;9.85;;;;;;;14.86;61.49;102026.50;4989688;28;20042;-79
2022/05/01 11:33:10;;;;;;;18.10;10.38;;;;;;;14.78;60.88;102018.84;4992280;28;20136;-78
2022/05/01 11:36:02;;;;;;;16.53;9.87;;;;;;;15.87;56.38;102011.97;4997118;28;20026;-79
2022/05/01 11:38:49;;;;;;;14.93;10.00;;;;;;;15.35;60.11;102007.94;4996821;28;20300;-78
2022/05/01 11:41:15;;;;;;;21.00;10.02;;;;;;;15.50;61.33;102016.84;4997205;28;20410;-79